Aviation Digital Data Service (ADDS)

Output produced by METARs form (1025 UTC 19 February 2019)
found at http://www.aviationweather.gov/metar/data/
 
Forecast for: VEBI (SHILLONG , IN)
Text: TAF VEBI 190800Z 1909/1918 21008KT 4000 HZ -RA SCT018 BKN100
Forecast period: 0900 to 1300 UTC 19 February 2019
Forecast type: FROM: standard forecast or significant change
Winds: from the SSW (210 degrees) at 9 MPH (8 knots; 4.1 m/s)
Visibility: 2.49 miles (4.01 km)
Ceiling: 10000 feet AGL
Clouds: scattered clouds at 1800 feet AGL
broken clouds at 10000 feet AGL
Weather: HZ -RA  (haze, light rain)
Text: BECMG 1913/1915 00000KT 3000 BR -RA
Forecast period: 1300 to 1800 UTC 19 February 2019
Forecast type: BECOMING: Conditions expected to become as follows by 1500 UTC 19 February 2019
Winds: calm
Visibility: 1.86 miles (2.99 km)
Ceiling: 10000 feet AGL
Clouds: scattered clouds at 1800 feet AGL
broken clouds at 10000 feet AGL
Weather: BR -RA  (mist, light rain)